sensor_id;sensor_type;location;lat;lon;timestamp;temperature;humidity
5870;DHT22;2961;47.702;9.410;2022-10-31T00:02:22;7.30;99.90
5870;DHT22;2961;47.702;9.410;2022-10-31T00:04:51;7.40;99.90
5870;DHT22;2961;47.702;9.410;2022-10-31T00:07:17;7.40;99.90
5870;DHT22;2961;47.702;9.410;2022-10-31T00:09:44;7.40;99.90
5870;DHT22;2961;47.702;9.410;2022-10-31T00:12:11;7.50;99.90
5870;DHT22;2961;47.702;9.410;2022-10-31T00:14:37;7.50;99.90
5870;DHT22;2961;47.702;9.410;2022-10-31T00:17:04;7.50;99.90
5870;DHT22;2961;47.702;9.410;2022-10-31T00:19:31;7.60;99.90
5870;DHT22;2961;47.702;9.410;2022-10-31T00:21:59;7.60;99.90
5870;DHT22;2961;47.702;9.410;2022-10-31T00:24:26;7.70;99.90
5870;DHT22;2961;47.702;9.410;2022-10-31T00:26:52;7.70;99.90
5870;DHT22;2961;47.702;9.410;2022-10-31T00:29:19;7.70;99.90
5870;DHT22;2961;47.702;9.410;2022-10-31T00:31:46;7.70;99.90
5870;DHT22;2961;47.702;9.410;2022-10-31T00:34:13;7.70;99.90
5870;DHT22;2961;47.702;9.410;2022-10-31T00:36:39;7.70;99.90
5870;DHT22;2961;47.702;9.410;2022-10-31T00:39:08;7.70;99.90
5870;DHT22;2961;47.702;9.410;2022-10-31T00:41:34;7.80;99.90
5870;DHT22;2961;47.702;9.410;2022-10-31T00:44:01;7.80;99.90
5870;DHT22;2961;47.702;9.410;2022-10-31T00:46:28;7.80;99.90
5870;DHT22;2961;47.702;9.410;2022-10-31T00:48:55;7.80;99.90
5870;DHT22;2961;47.702;9.410;2022-10-31T00:51:22;7.80;99.90
5870;DHT22;2961;47.702;9.410;2022-10-31T00:53:48;7.90;99.90
5870;DHT22;2961;47.702;9.410;2022-10-31T00:56:16;7.90;99.90
5870;DHT22;2961;47.702;9.410;2022-10-31T00:58:43;7.90;99.90
5870;DHT22;2961;47.702;9.410;2022-10-31T01:01:10;7.90;99.90
5870;DHT22;2961;47.702;9.410;2022-10-31T01:03:37;7.90;99.90
5870;DHT22;2961;47.702;9.410;2022-10-31T01:06:07;7.90;99.90
5870;DHT22;2961;47.702;9.410;2022-10-31T01:08:34;7.90;99.90
5870;DHT22;2961;47.702;9.410;2022-10-31T01:11:05;8.00;99.90
5870;DHT22;2961;47.702;9.410;2022-10-31T01:13:33;8.00;99.90
5870;DHT22;2961;47.702;9.410;2022-10-31T01:16:01;8.00;99.90
5870;DHT22;2961;47.702;9.410;2022-10-31T01:18:28;8.00;99.90
5870;DHT22;2961;47.702;9.410;2022-10-31T01:21:00;8.10;99.90
5870;DHT22;2961;47.702;9.410;2022-10-31T01:23:27;8.10;99.90
5870;DHT22;2961;47.702;9.410;2022-10-31T01:26:06;8.10;99.90
5870;DHT22;2961;47.702;9.410;2022-10-31T01:28:36;8.00;99.90
5870;DHT22;2961;47.702;9.410;2022-10-31T01:31:05;8.00;99.90
5870;DHT22;2961;47.702;9.410;2022-10-31T01:33:32;8.10;99.90
5870;DHT22;2961;47.702;9.410;2022-10-31T01:35:59;8.10;99.90
5870;DHT22;2961;47.702;9.410;2022-10-31T01:38:26;8.10;99.90
5870;DHT22;2961;47.702;9.410;2022-10-31T01:40:53;8.10;99.90
5870;DHT22;2961;47.702;9.410;2022-10-31T01:43:20;8.10;99.90
5870;DHT22;2961;47.702;9.410;2022-10-31T01:45:51;8.10;99.90
5870;DHT22;2961;47.702;9.410;2022-10-31T01:48:24;8.10;99.90
5870;DHT22;2961;47.702;9.410;2022-10-31T01:50:54;8.10;99.90
5870;DHT22;2961;47.702;9.410;2022-10-31T01:53:22;8.10;99.90
5870;DHT22;2961;47.702;9.410;2022-10-31T01:55:49;8.10;99.90
5870;DHT22;2961;47.702;9.410;2022-10-31T01:58:25;8.20;99.90
5870;DHT22;2961;47.702;9.410;2022-10-31T02:00:56;8.20;99.90
5870;DHT22;2961;47.702;9.410;2022-10-31T02:03:25;8.20;99.90
5870;DHT22;2961;47.702;9.410;2022-10-31T02:05:53;8.30;99.90
5870;DHT22;2961;47.702;9.410;2022-10-31T02:08:25;8.30;99.90
5870;DHT22;2961;47.702;9.410;2022-10-31T02:10:53;8.30;99.90
5870;DHT22;2961;47.702;9.410;2022-10-31T02:13:21;8.30;99.90
5870;DHT22;2961;47.702;9.410;2022-10-31T02:15:51;8.40;99.90
5870;DHT22;2961;47.702;9.410;2022-10-31T02:18:20;8.40;99.90
5870;DHT22;2961;47.702;9.410;2022-10-31T02:20:56;8.40;99.90
5870;DHT22;2961;47.702;9.410;2022-10-31T02:26:43;8.50;99.90
5870;DHT22;2961;47.702;9.410;2022-10-31T02:29:42;8.60;99.90
5870;DHT22;2961;47.702;9.410;2022-10-31T02:32:18;8.60;99.90
5870;DHT22;2961;47.702;9.410;2022-10-31T02:34:55;8.60;99.90
5870;DHT22;2961;47.702;9.410;2022-10-31T02:37:27;8.70;99.90
5870;DHT22;2961;47.702;9.410;2022-10-31T02:40:05;8.70;99.90
5870;DHT22;2961;47.702;9.410;2022-10-31T02:42:41;8.70;99.90
5870;DHT22;2961;47.702;9.410;2022-10-31T02:45:14;8.70;99.90
5870;DHT22;2961;47.702;9.410;2022-10-31T02:47:48;8.70;99.90
5870;DHT22;2961;47.702;9.410;2022-10-31T02:50:21;8.70;99.90
5870;DHT22;2961;47.702;9.410;2022-10-31T02:52:51;8.70;99.90
5870;DHT22;2961;47.702;9.410;2022-10-31T02:55:42;8.70;99.90
5870;DHT22;2961;47.702;9.410;2022-10-31T02:58:13;8.70;99.90
5870;DHT22;2961;47.702;9.410;2022-10-31T03:00:48;8.70;99.90
5870;DHT22;2961;47.702;9.410;2022-10-31T03:03:25;8.70;99.90
5870;DHT22;2961;47.702;9.410;2022-10-31T03:06:01;8.70;99.90
5870;DHT22;2961;47.702;9.410;2022-10-31T03:08:35;8.70;99.90
5870;DHT22;2961;47.702;9.410;2022-10-31T03:11:04;8.70;99.90
5870;DHT22;2961;47.702;9.410;2022-10-31T03:13:35;8.70;99.90
5870;DHT22;2961;47.702;9.410;2022-10-31T03:16:09;8.70;99.90
5870;DHT22;2961;47.702;9.410;2022-10-31T03:18:40;8.60;99.90
5870;DHT22;2961;47.702;9.410;2022-10-31T03:21:12;8.60;99.90
5870;DHT22;2961;47.702;9.410;2022-10-31T03:23:40;8.60;99.90
5870;DHT22;2961;47.702;9.410;2022-10-31T03:26:11;8.60;99.90
5870;DHT22;2961;47.702;9.410;2022-10-31T03:28:46;8.70;99.90
5870;DHT22;2961;47.702;9.410;2022-10-31T03:31:17;8.70;99.90
5870;DHT22;2961;47.702;9.410;2022-10-31T03:33:46;8.70;99.90
5870;DHT22;2961;47.702;9.410;2022-10-31T03:36:15;8.60;99.90
5870;DHT22;2961;47.702;9.410;2022-10-31T03:38:44;8.60;99.90
5870;DHT22;2961;47.702;9.410;2022-10-31T03:41:16;8.60;99.90
5870;DHT22;2961;47.702;9.410;2022-10-31T03:43:51;8.60;99.90
5870;DHT22;2961;47.702;9.410;2022-10-31T03:46:19;8.60;99.90
5870;DHT22;2961;47.702;9.410;2022-10-31T03:48:47;8.70;99.90
5870;DHT22;2961;47.702;9.410;2022-10-31T03:51:19;8.70;99.90
5870;DHT22;2961;47.702;9.410;2022-10-31T03:53:53;8.60;99.90
5870;DHT22;2961;47.702;9.410;2022-10-31T03:56:27;8.70;99.90
5870;DHT22;2961;47.702;9.410;2022-10-31T03:59:00;8.60;99.90
5870;DHT22;2961;47.702;9.410;2022-10-31T04:01:30;8.70;99.90
5870;DHT22;2961;47.702;9.410;2022-10-31T04:04:00;8.70;99.90
5870;DHT22;2961;47.702;9.410;2022-10-31T04:06:27;8.70;99.90
5870;DHT22;2961;47.702;9.410;2022-10-31T04:08:58;8.80;99.90
5870;DHT22;2961;47.702;9.410;2022-10-31T04:11:29;8.80;99.90
5870;DHT22;2961;47.702;9.410;2022-10-31T04:13:58;8.90;99.90
5870;DHT22;2961;47.702;9.410;2022-10-31T04:16:26;9.00;99.90
5870;DHT22;2961;47.702;9.410;2022-10-31T04:18:53;9.00;99.90
5870;DHT22;2961;47.702;9.410;2022-10-31T04:21:27;9.10;99.90
5870;DHT22;2961;47.702;9.410;2022-10-31T04:23:54;9.00;99.90
5870;DHT22;2961;47.702;9.410;2022-10-31T04:26:21;9.00;99.90
5870;DHT22;2961;47.702;9.410;2022-10-31T04:28:48;8.90;99.90
5870;DHT22;2961;47.702;9.410;2022-10-31T04:31:15;8.90;99.90
5870;DHT22;2961;47.702;9.410;2022-10-31T04:33:42;8.80;99.90
5870;DHT22;2961;47.702;9.410;2022-10-31T04:36:09;8.80;99.90
5870;DHT22;2961;47.702;9.410;2022-10-31T04:38:37;8.70;99.90
5870;DHT22;2961;47.702;9.410;2022-10-31T04:41:04;8.70;99.90
5870;DHT22;2961;47.702;9.410;2022-10-31T04:43:30;8.80;99.90
5870;DHT22;2961;47.702;9.410;2022-10-31T04:45:57;8.80;99.90
5870;DHT22;2961;47.702;9.410;2022-10-31T04:48:24;8.80;99.90
5870;DHT22;2961;47.702;9.410;2022-10-31T04:50:51;8.80;99.90
5870;DHT22;2961;47.702;9.410;2022-10-31T04:53:18;8.70;99.90
5870;DHT22;2961;47.702;9.410;2022-10-31T04:55:46;8.70;99.90
5870;DHT22;2961;47.702;9.410;2022-10-31T04:58:13;8.70;99.90
5870;DHT22;2961;47.702;9.410;2022-10-31T05:00:39;8.70;99.90
5870;DHT22;2961;47.702;9.410;2022-10-31T05:03:06;8.60;99.90
5870;DHT22;2961;47.702;9.410;2022-10-31T05:05:33;8.60;99.90
5870;DHT22;2961;47.702;9.410;2022-10-31T05:08:00;8.50;99.90
5870;DHT22;2961;47.702;9.410;2022-10-31T05:10:29;8.50;99.90
5870;DHT22;2961;47.702;9.410;2022-10-31T05:12:58;8.40;99.90
5870;DHT22;2961;47.702;9.410;2022-10-31T05:15:26;8.40;99.90
5870;DHT22;2961;47.702;9.410;2022-10-31T05:17:54;8.40;99.90
5870;DHT22;2961;47.702;9.410;2022-10-31T05:20:23;8.30;99.90
5870;DHT22;2961;47.702;9.410;2022-10-31T05:22:52;8.30;99.90
5870;DHT22;2961;47.702;9.410;2022-10-31T05:25:20;8.30;99.90
5870;DHT22;2961;47.702;9.410;2022-10-31T05:27:49;8.40;99.90
5870;DHT22;2961;47.702;9.410;2022-10-31T05:30:19;8.50;99.90
5870;DHT22;2961;47.702;9.410;2022-10-31T05:32:48;8.50;99.90
5870;DHT22;2961;47.702;9.410;2022-10-31T05:35:17;8.50;99.90
5870;DHT22;2961;47.702;9.410;2022-10-31T05:37:43;8.40;99.90
5870;DHT22;2961;47.702;9.410;2022-10-31T05:40:12;8.40;99.90
5870;DHT22;2961;47.702;9.410;2022-10-31T05:42:39;8.30;99.90
5870;DHT22;2961;47.702;9.410;2022-10-31T05:45:08;8.30;99.90
5870;DHT22;2961;47.702;9.410;2022-10-31T05:47:36;8.30;99.90
5870;DHT22;2961;47.702;9.410;2022-10-31T05:50:04;8.30;99.90
5870;DHT22;2961;47.702;9.410;2022-10-31T05:52:31;8.30;99.90
5870;DHT22;2961;47.702;9.410;2022-10-31T05:54:57;8.30;99.90
5870;DHT22;2961;47.702;9.410;2022-10-31T05:57:24;8.30;99.90
5870;DHT22;2961;47.702;9.410;2022-10-31T05:59:51;8.30;99.90
5870;DHT22;2961;47.702;9.410;2022-10-31T06:02:19;8.30;99.90
5870;DHT22;2961;47.702;9.410;2022-10-31T06:04:47;8.30;99.90
5870;DHT22;2961;47.702;9.410;2022-10-31T06:07:14;8.40;99.90
5870;DHT22;2961;47.702;9.410;2022-10-31T06:09:41;8.40;99.90
5870;DHT22;2961;47.702;9.410;2022-10-31T06:12:08;8.40;99.90
5870;DHT22;2961;47.702;9.410;2022-10-31T06:14:35;8.40;99.90
5870;DHT22;2961;47.702;9.410;2022-10-31T06:17:01;8.40;99.90
5870;DHT22;2961;47.702;9.410;2022-10-31T06:19:28;8.40;99.90
5870;DHT22;2961;47.702;9.410;2022-10-31T06:21:56;8.40;99.90
5870;DHT22;2961;47.702;9.410;2022-10-31T06:24:23;8.40;99.90
5870;DHT22;2961;47.702;9.410;2022-10-31T06:26:50;8.40;99.90
5870;DHT22;2961;47.702;9.410;2022-10-31T06:29:16;8.40;99.90
5870;DHT22;2961;47.702;9.410;2022-10-31T06:31:43;8.40;99.90
5870;DHT22;2961;47.702;9.410;2022-10-31T06:34:10;8.50;99.90
5870;DHT22;2961;47.702;9.410;2022-10-31T06:36:36;8.50;99.90
5870;DHT22;2961;47.702;9.410;2022-10-31T06:39:05;8.50;99.90
5870;DHT22;2961;47.702;9.410;2022-10-31T06:41:31;8.60;99.90
5870;DHT22;2961;47.702;9.410;2022-10-31T06:43:58;8.60;99.90
5870;DHT22;2961;47.702;9.410;2022-10-31T06:46:25;8.70;99.90
5870;DHT22;2961;47.702;9.410;2022-10-31T06:48:52;8.70;99.90
5870;DHT22;2961;47.702;9.410;2022-10-31T06:51:18;8.70;99.90
5870;DHT22;2961;47.702;9.410;2022-10-31T06:53:45;8.70;99.90
5870;DHT22;2961;47.702;9.410;2022-10-31T06:56:13;8.80;99.90
5870;DHT22;2961;47.702;9.410;2022-10-31T06:58:40;8.80;99.90
5870;DHT22;2961;47.702;9.410;2022-10-31T07:01:07;8.90;99.90
5870;DHT22;2961;47.702;9.410;2022-10-31T07:03:33;8.90;99.90
5870;DHT22;2961;47.702;9.410;2022-10-31T07:06:00;8.90;99.90
5870;DHT22;2961;47.702;9.410;2022-10-31T07:08:27;8.90;99.90
5870;DHT22;2961;47.702;9.410;2022-10-31T07:10:56;9.00;99.90
5870;DHT22;2961;47.702;9.410;2022-10-31T07:13:24;9.00;99.90
5870;DHT22;2961;47.702;9.410;2022-10-31T07:15:52;9.00;99.90
5870;DHT22;2961;47.702;9.410;2022-10-31T07:18:19;9.00;99.90
5870;DHT22;2961;47.702;9.410;2022-10-31T07:20:46;9.00;99.90
5870;DHT22;2961;47.702;9.410;2022-10-31T07:23:13;9.10;99.90
5870;DHT22;2961;47.702;9.410;2022-10-31T07:25:41;9.20;99.90
5870;DHT22;2961;47.702;9.410;2022-10-31T07:28:08;9.30;99.90
5870;DHT22;2961;47.702;9.410;2022-10-31T07:30:37;9.30;99.90
5870;DHT22;2961;47.702;9.410;2022-10-31T07:33:04;9.40;99.90
5870;DHT22;2961;47.702;9.410;2022-10-31T07:35:31;9.40;99.90
5870;DHT22;2961;47.702;9.410;2022-10-31T07:38:07;9.40;99.90
5870;DHT22;2961;47.702;9.410;2022-10-31T07:40:34;9.40;99.90
5870;DHT22;2961;47.702;9.410;2022-10-31T07:43:00;9.40;99.90
5870;DHT22;2961;47.702;9.410;2022-10-31T07:45:27;9.40;99.90
5870;DHT22;2961;47.702;9.410;2022-10-31T07:47:55;9.30;99.90
5870;DHT22;2961;47.702;9.410;2022-10-31T07:50:23;9.30;99.90
5870;DHT22;2961;47.702;9.410;2022-10-31T07:52:58;9.30;99.90
5870;DHT22;2961;47.702;9.410;2022-10-31T07:55:25;9.40;99.90
5870;DHT22;2961;47.702;9.410;2022-10-31T07:57:56;9.40;99.90
5870;DHT22;2961;47.702;9.410;2022-10-31T08:00:22;9.40;99.90
5870;DHT22;2961;47.702;9.410;2022-10-31T08:02:57;9.40;99.90
5870;DHT22;2961;47.702;9.410;2022-10-31T08:05:24;9.40;99.90
5870;DHT22;2961;47.702;9.410;2022-10-31T08:07:51;9.40;99.90
5870;DHT22;2961;47.702;9.410;2022-10-31T08:10:18;9.30;99.90
5870;DHT22;2961;47.702;9.410;2022-10-31T08:12:45;9.40;99.90
5870;DHT22;2961;47.702;9.410;2022-10-31T08:15:12;9.50;99.90
5870;DHT22;2961;47.702;9.410;2022-10-31T08:17:39;9.60;99.90
5870;DHT22;2961;47.702;9.410;2022-10-31T08:20:08;9.50;99.90
5870;DHT22;2961;47.702;9.410;2022-10-31T08:22:35;9.50;99.90
5870;DHT22;2961;47.702;9.410;2022-10-31T08:25:04;9.50;99.90
5870;DHT22;2961;47.702;9.410;2022-10-31T08:27:30;9.60;99.90
5870;DHT22;2961;47.702;9.410;2022-10-31T08:29:57;9.60;99.90
5870;DHT22;2961;47.702;9.410;2022-10-31T08:32:24;9.60;99.90
5870;DHT22;2961;47.702;9.410;2022-10-31T08:34:51;9.70;99.90
5870;DHT22;2961;47.702;9.410;2022-10-31T08:37:19;9.80;99.90
5870;DHT22;2961;47.702;9.410;2022-10-31T08:39:46;9.90;99.90
5870;DHT22;2961;47.702;9.410;2022-10-31T08:42:13;10.00;99.90
5870;DHT22;2961;47.702;9.410;2022-10-31T08:44:40;10.20;99.90
5870;DHT22;2961;47.702;9.410;2022-10-31T08:47:07;10.30;99.90
5870;DHT22;2961;47.702;9.410;2022-10-31T08:49:34;10.40;99.90
5870;DHT22;2961;47.702;9.410;2022-10-31T08:52:00;10.60;99.90
5870;DHT22;2961;47.702;9.410;2022-10-31T08:54:28;10.70;99.90
5870;DHT22;2961;47.702;9.410;2022-10-31T08:56:55;11.00;99.90
5870;DHT22;2961;47.702;9.410;2022-10-31T08:59:22;11.00;99.90
5870;DHT22;2961;47.702;9.410;2022-10-31T09:01:49;11.20;99.90
5870;DHT22;2961;47.702;9.410;2022-10-31T09:04:16;11.20;99.90
5870;DHT22;2961;47.702;9.410;2022-10-31T09:06:43;11.20;99.90
5870;DHT22;2961;47.702;9.410;2022-10-31T09:09:09;11.20;99.90
5870;DHT22;2961;47.702;9.410;2022-10-31T09:11:37;11.20;99.90
5870;DHT22;2961;47.702;9.410;2022-10-31T09:14:05;11.20;99.90
5870;DHT22;2961;47.702;9.410;2022-10-31T09:16:32;11.20;99.90
5870;DHT22;2961;47.702;9.410;2022-10-31T09:18:59;11.30;99.90
5870;DHT22;2961;47.702;9.410;2022-10-31T09:21:26;11.30;99.90
5870;DHT22;2961;47.702;9.410;2022-10-31T09:23:52;11.30;99.90
5870;DHT22;2961;47.702;9.410;2022-10-31T09:26:20;11.40;99.90
5870;DHT22;2961;47.702;9.410;2022-10-31T09:28:48;11.40;99.90
5870;DHT22;2961;47.702;9.410;2022-10-31T09:31:15;11.40;99.90
5870;DHT22;2961;47.702;9.410;2022-10-31T09:33:41;11.50;99.90
5870;DHT22;2961;47.702;9.410;2022-10-31T09:36:08;11.60;99.90
5870;DHT22;2961;47.702;9.410;2022-10-31T09:38:35;11.70;99.90
5870;DHT22;2961;47.702;9.410;2022-10-31T09:41:11;11.80;99.90
5870;DHT22;2961;47.702;9.410;2022-10-31T09:43:50;11.80;99.90
5870;DHT22;2961;47.702;9.410;2022-10-31T09:46:25;11.80;99.90
5870;DHT22;2961;47.702;9.410;2022-10-31T09:49:09;11.90;99.90
5870;DHT22;2961;47.702;9.410;2022-10-31T09:51:42;12.00;99.90
5870;DHT22;2961;47.702;9.410;2022-10-31T09:54:14;12.00;99.90
5870;DHT22;2961;47.702;9.410;2022-10-31T09:56:42;12.00;99.90
5870;DHT22;2961;47.702;9.410;2022-10-31T09:59:21;12.00;99.90
5870;DHT22;2961;47.702;9.410;2022-10-31T10:01:54;12.00;99.90
5870;DHT22;2961;47.702;9.410;2022-10-31T10:04:34;12.00;99.90
5870;DHT22;2961;47.702;9.410;2022-10-31T10:07:11;11.90;99.90
5870;DHT22;2961;47.702;9.410;2022-10-31T10:09:40;11.90;99.90
5870;DHT22;2961;47.702;9.410;2022-10-31T10:12:14;11.90;99.90
5870;DHT22;2961;47.702;9.410;2022-10-31T10:15:02;12.00;99.90
5870;DHT22;2961;47.702;9.410;2022-10-31T10:17:37;12.00;99.90
5870;DHT22;2961;47.702;9.410;2022-10-31T10:20:21;12.10;99.90
5870;DHT22;2961;47.702;9.410;2022-10-31T10:22:56;12.20;99.90
5870;DHT22;2961;47.702;9.410;2022-10-31T10:25:34;12.20;99.90
5870;DHT22;2961;47.702;9.410;2022-10-31T10:28:13;12.30;99.90
5870;DHT22;2961;47.702;9.410;2022-10-31T10:30:47;12.40;99.90
5870;DHT22;2961;47.702;9.410;2022-10-31T10:33:19;12.40;99.90
5870;DHT22;2961;47.702;9.410;2022-10-31T10:35:49;12.40;99.90
5870;DHT22;2961;47.702;9.410;2022-10-31T10:38:23;12.40;99.90
5870;DHT22;2961;47.702;9.410;2022-10-31T10:40:54;12.40;99.90
5870;DHT22;2961;47.702;9.410;2022-10-31T10:43:23;12.50;99.90
5870;DHT22;2961;47.702;9.410;2022-10-31T10:45:57;12.50;99.90
5870;DHT22;2961;47.702;9.410;2022-10-31T10:48:45;12.60;99.90
5870;DHT22;2961;47.702;9.410;2022-10-31T10:51:22;12.70;99.90
5870;DHT22;2961;47.702;9.410;2022-10-31T10:54:13;12.80;99.90
5870;DHT22;2961;47.702;9.410;2022-10-31T10:56:55;12.80;99.90
5870;DHT22;2961;47.702;9.410;2022-10-31T10:59:23;12.90;99.90
5870;DHT22;2961;47.702;9.410;2022-10-31T11:01:52;12.90;99.90
5870;DHT22;2961;47.702;9.410;2022-10-31T11:04:27;13.00;99.90
5870;DHT22;2961;47.702;9.410;2022-10-31T11:07:02;13.00;99.90
5870;DHT22;2961;47.702;9.410;2022-10-31T11:09:30;13.00;99.90
5870;DHT22;2961;47.702;9.410;2022-10-31T11:11:58;13.10;99.90
5870;DHT22;2961;47.702;9.410;2022-10-31T11:14:26;13.20;99.90
5870;DHT22;2961;47.702;9.410;2022-10-31T11:17:06;13.20;99.90
5870;DHT22;2961;47.702;9.410;2022-10-31T11:19:34;13.10;99.90
5870;DHT22;2961;47.702;9.410;2022-10-31T11:22:05;13.10;99.90
5870;DHT22;2961;47.702;9.410;2022-10-31T11:24:37;13.10;99.90
5870;DHT22;2961;47.702;9.410;2022-10-31T11:27:13;13.00;99.90
5870;DHT22;2961;47.702;9.410;2022-10-31T11:29:40;12.90;99.90
5870;DHT22;2961;47.702;9.410;2022-10-31T11:32:18;13.00;99.90
5870;DHT22;2961;47.702;9.410;2022-10-31T11:34:47;12.90;99.90
5870;DHT22;2961;47.702;9.410;2022-10-31T11:37:19;13.00;99.90
5870;DHT22;2961;47.702;9.410;2022-10-31T11:39:49;12.90;99.90
5870;DHT22;2961;47.702;9.410;2022-10-31T11:42:20;12.90;99.90
5870;DHT22;2961;47.702;9.410;2022-10-31T11:44:48;12.80;99.90
5870;DHT22;2961;47.702;9.410;2022-10-31T11:47:21;12.80;99.90
5870;DHT22;2961;47.702;9.410;2022-10-31T11:49:50;12.80;99.90
5870;DHT22;2961;47.702;9.410;2022-10-31T11:52:20;12.80;99.90
5870;DHT22;2961;47.702;9.410;2022-10-31T11:54:50;12.70;99.90
5870;DHT22;2961;47.702;9.410;2022-10-31T11:57:25;12.70;99.90
5870;DHT22;2961;47.702;9.410;2022-10-31T11:59:53;12.70;99.90
5870;DHT22;2961;47.702;9.410;2022-10-31T12:02:23;12.60;99.90
5870;DHT22;2961;47.702;9.410;2022-10-31T12:04:57;12.60;99.90
5870;DHT22;2961;47.702;9.410;2022-10-31T12:07:26;12.60;99.90
5870;DHT22;2961;47.702;9.410;2022-10-31T12:09:53;12.70;99.90
5870;DHT22;2961;47.702;9.410;2022-10-31T12:12:44;12.60;99.90
5870;DHT22;2961;47.702;9.410;2022-10-31T12:15:26;12.80;99.90
5870;DHT22;2961;47.702;9.410;2022-10-31T12:18:12;12.80;99.90
5870;DHT22;2961;47.702;9.410;2022-10-31T12:20:52;12.70;99.90
5870;DHT22;2961;47.702;9.410;2022-10-31T12:23:28;12.80;99.90
5870;DHT22;2961;47.702;9.410;2022-10-31T12:26:12;12.90;99.90
5870;DHT22;2961;47.702;9.410;2022-10-31T12:31:41;13.10;99.90
5870;DHT22;2961;47.702;9.410;2022-10-31T12:34:33;13.10;99.90
5870;DHT22;2961;47.702;9.410;2022-10-31T12:37:08;13.10;99.90
5870;DHT22;2961;47.702;9.410;2022-10-31T12:39:44;13.10;99.90
5870;DHT22;2961;47.702;9.410;2022-10-31T12:42:19;13.10;99.90
5870;DHT22;2961;47.702;9.410;2022-10-31T12:45:00;13.20;99.90
5870;DHT22;2961;47.702;9.410;2022-10-31T12:47:53;13.20;99.90
5870;DHT22;2961;47.702;9.410;2022-10-31T12:50:29;13.30;99.90
5870;DHT22;2961;47.702;9.410;2022-10-31T12:53:07;13.40;99.90
5870;DHT22;2961;47.702;9.410;2022-10-31T12:55:54;13.40;99.90
5870;DHT22;2961;47.702;9.410;2022-10-31T12:58:26;13.40;99.90
5870;DHT22;2961;47.702;9.410;2022-10-31T13:01:02;13.50;99.90
5870;DHT22;2961;47.702;9.410;2022-10-31T13:03:33;13.60;99.90
5870;DHT22;2961;47.702;9.410;2022-10-31T13:06:09;13.80;99.90
5870;DHT22;2961;47.702;9.410;2022-10-31T13:08:41;13.90;99.90
5870;DHT22;2961;47.702;9.410;2022-10-31T13:11:11;13.90;99.90
5870;DHT22;2961;47.702;9.410;2022-10-31T13:14:01;14.00;99.90
5870;DHT22;2961;47.702;9.410;2022-10-31T13:16:32;14.00;99.90
5870;DHT22;2961;47.702;9.410;2022-10-31T13:19:05;13.90;99.90
5870;DHT22;2961;47.702;9.410;2022-10-31T13:21:40;14.00;99.90
5870;DHT22;2961;47.702;9.410;2022-10-31T13:24:13;13.90;99.90
5870;DHT22;2961;47.702;9.410;2022-10-31T13:26:45;13.80;99.90
5870;DHT22;2961;47.702;9.410;2022-10-31T13:29:18;13.70;99.90
5870;DHT22;2961;47.702;9.410;2022-10-31T13:31:46;13.80;99.90
5870;DHT22;2961;47.702;9.410;2022-10-31T13:34:22;13.80;99.90
5870;DHT22;2961;47.702;9.410;2022-10-31T13:36:59;13.90;99.90
5870;DHT22;2961;47.702;9.410;2022-10-31T13:39:38;13.90;99.90
5870;DHT22;2961;47.702;9.410;2022-10-31T13:42:12;14.00;99.90
5870;DHT22;2961;47.702;9.410;2022-10-31T13:44:40;14.10;99.90
5870;DHT22;2961;47.702;9.410;2022-10-31T13:47:22;14.10;99.90
5870;DHT22;2961;47.702;9.410;2022-10-31T13:49:50;14.20;99.90
5870;DHT22;2961;47.702;9.410;2022-10-31T13:52:24;14.20;99.90
5870;DHT22;2961;47.702;9.410;2022-10-31T13:54:52;14.20;99.90
5870;DHT22;2961;47.702;9.410;2022-10-31T13:57:30;14.10;99.90
5870;DHT22;2961;47.702;9.410;2022-10-31T13:59:59;14.10;99.90
5870;DHT22;2961;47.702;9.410;2022-10-31T14:02:29;13.90;99.90
5870;DHT22;2961;47.702;9.410;2022-10-31T14:04:58;13.60;99.90
5870;DHT22;2961;47.702;9.410;2022-10-31T14:07:28;13.50;99.90
5870;DHT22;2961;47.702;9.410;2022-10-31T14:09:58;13.40;99.90
5870;DHT22;2961;47.702;9.410;2022-10-31T14:12:30;13.30;99.90
5870;DHT22;2961;47.702;9.410;2022-10-31T14:15:00;13.30;99.90
5870;DHT22;2961;47.702;9.410;2022-10-31T14:17:32;13.20;99.90
5870;DHT22;2961;47.702;9.410;2022-10-31T14:20:24;13.20;99.90
5870;DHT22;2961;47.702;9.410;2022-10-31T14:22:52;13.10;99.90
5870;DHT22;2961;47.702;9.410;2022-10-31T14:25:27;13.10;99.90
5870;DHT22;2961;47.702;9.410;2022-10-31T14:27:55;13.00;99.90
5870;DHT22;2961;47.702;9.410;2022-10-31T14:30:24;13.00;99.90
5870;DHT22;2961;47.702;9.410;2022-10-31T14:32:53;12.90;99.90
5870;DHT22;2961;47.702;9.410;2022-10-31T14:35:25;12.90;99.90
5870;DHT22;2961;47.702;9.410;2022-10-31T14:40:49;12.90;99.90
5870;DHT22;2961;47.702;9.410;2022-10-31T14:43:48;12.80;99.90
5870;DHT22;2961;47.702;9.410;2022-10-31T14:46:25;12.70;99.90
5870;DHT22;2961;47.702;9.410;2022-10-31T14:49:06;12.60;99.90
5870;DHT22;2961;47.702;9.410;2022-10-31T14:51:39;12.50;99.90
5870;DHT22;2961;47.702;9.410;2022-10-31T14:54:12;12.50;99.90
5870;DHT22;2961;47.702;9.410;2022-10-31T14:56:46;12.50;99.90
5870;DHT22;2961;47.702;9.410;2022-10-31T14:59:15;12.30;99.90
5870;DHT22;2961;47.702;9.410;2022-10-31T15:01:53;12.20;99.90
5870;DHT22;2961;47.702;9.410;2022-10-31T15:04:23;12.10;99.90
5870;DHT22;2961;47.702;9.410;2022-10-31T15:06:54;12.10;99.90
5870;DHT22;2961;47.702;9.410;2022-10-31T15:09:27;12.10;99.90
5870;DHT22;2961;47.702;9.410;2022-10-31T15:11:55;12.10;99.90
5870;DHT22;2961;47.702;9.410;2022-10-31T15:14:24;12.10;99.90
5870;DHT22;2961;47.702;9.410;2022-10-31T15:16:52;12.10;99.90
5870;DHT22;2961;47.702;9.410;2022-10-31T15:19:21;12.20;99.90
5870;DHT22;2961;47.702;9.410;2022-10-31T15:21:51;12.10;99.90
5870;DHT22;2961;47.702;9.410;2022-10-31T15:24:18;12.10;99.90
5870;DHT22;2961;47.702;9.410;2022-10-31T15:26:51;12.10;99.90
5870;DHT22;2961;47.702;9.410;2022-10-31T15:29:19;12.00;99.90
5870;DHT22;2961;47.702;9.410;2022-10-31T15:31:51;11.90;99.90
5870;DHT22;2961;47.702;9.410;2022-10-31T15:34:22;11.90;99.90
5870;DHT22;2961;47.702;9.410;2022-10-31T15:36:51;11.90;99.90
5870;DHT22;2961;47.702;9.410;2022-10-31T15:39:18;11.80;99.90
5870;DHT22;2961;47.702;9.410;2022-10-31T15:41:50;11.70;99.90
5870;DHT22;2961;47.702;9.410;2022-10-31T15:44:21;11.70;99.90
5870;DHT22;2961;47.702;9.410;2022-10-31T15:46:54;11.60;99.90
5870;DHT22;2961;47.702;9.410;2022-10-31T15:49:31;11.60;99.90
5870;DHT22;2961;47.702;9.410;2022-10-31T15:52:03;11.60;99.90
5870;DHT22;2961;47.702;9.410;2022-10-31T15:54:31;11.50;99.90
5870;DHT22;2961;47.702;9.410;2022-10-31T15:57:00;11.50;99.90
5870;DHT22;2961;47.702;9.410;2022-10-31T15:59:28;11.40;99.90
5870;DHT22;2961;47.702;9.410;2022-10-31T16:02:01;11.40;99.90
5870;DHT22;2961;47.702;9.410;2022-10-31T16:04:28;11.30;99.90
5870;DHT22;2961;47.702;9.410;2022-10-31T16:07:02;11.30;99.90
5870;DHT22;2961;47.702;9.410;2022-10-31T16:09:48;11.30;99.90
5870;DHT22;2961;47.702;9.410;2022-10-31T16:12:16;11.20;99.90
5870;DHT22;2961;47.702;9.410;2022-10-31T16:14:43;11.10;99.90
5870;DHT22;2961;47.702;9.410;2022-10-31T16:17:12;11.10;99.90
5870;DHT22;2961;47.702;9.410;2022-10-31T16:19:48;11.00;99.90
5870;DHT22;2961;47.702;9.410;2022-10-31T16:22:20;11.00;99.90
5870;DHT22;2961;47.702;9.410;2022-10-31T16:24:50;11.00;99.90
5870;DHT22;2961;47.702;9.410;2022-10-31T16:27:21;11.10;99.90
5870;DHT22;2961;47.702;9.410;2022-10-31T16:29:51;11.00;99.90
5870;DHT22;2961;47.702;9.410;2022-10-31T16:32:26;11.00;99.90
5870;DHT22;2961;47.702;9.410;2022-10-31T16:35:02;11.00;99.90
5870;DHT22;2961;47.702;9.410;2022-10-31T16:37:39;11.00;99.90
5870;DHT22;2961;47.702;9.410;2022-10-31T16:40:07;11.00;99.90
5870;DHT22;2961;47.702;9.410;2022-10-31T16:42:36;10.90;99.90